Time;durP1;ratioP1;P1;durP2;ratioP2;P2;SDS_P1;SDS_P2;PMS_P1;PMS_P2;Temp;Humidity;BMP_temperature;BMP_pressure;BME280_temperature;BME280_humidity;BME280_pressure;Samples;Min_cycle;Max_cycle;Signal;HPM_P1;HPM_P2
2022/02/02 00:01:38;;;;;;;45.25;20.15;;;;;;;;;;5017604;28;20504;-46
2022/02/02 00:04:07;;;;;;;86.70;35.70;;;;;;;;;;5017961;28;20076;-45
2022/02/02 00:06:40;;;;;;;101.70;42.70;;;;;;;;;;5017806;28;20045;-46
2022/02/02 00:09:12;;;;;;;86.15;37.17;;;;;;;;;;5017485;28;20042;-45
2022/02/02 00:17:01;;;;;;;48.38;23.20;;;;;;;;;;5018105;28;20705;-46
2022/02/02 00:22:22;;;;;;;44.58;21.42;;;;;;;;;;5017453;28;20018;-47
2022/02/02 00:27:20;;;;;;;39.28;17.75;;;;;;;;;;5019558;28;20033;-45
2022/02/02 00:29:52;;;;;;;36.80;18.23;;;;;;;;;;5021047;28;20060;-47
2022/02/02 00:34:53;;;;;;;33.53;17.05;;;;;;;;;;5021358;28;20321;-44
2022/02/02 00:37:20;;;;;;;38.20;18.27;;;;;;;;;;5022129;28;20765;-45
2022/02/02 00:39:46;;;;;;;45.17;22.85;;;;;;;;;;5021500;28;20800;-47
2022/02/02 00:42:13;;;;;;;38.67;16.83;;;;;;;;;;5021455;28;20142;-44
2022/02/02 00:44:45;;;;;;;41.13;19.00;;;;;;;;;;5021071;28;20029;-45
2022/02/02 00:47:18;;;;;;;35.33;16.85;;;;;;;;;;5021103;28;20025;-47
2022/02/02 00:49:46;;;;;;;33.10;16.80;;;;;;;;;;5021339;28;20065;-44
2022/02/02 00:52:12;;;;;;;37.70;16.70;;;;;;;;;;5021221;28;20037;-45
2022/02/02 00:54:38;;;;;;;26.80;13.75;;;;;;;;;;5021104;28;20362;-44
2022/02/02 00:57:05;;;;;;;33.42;16.50;;;;;;;;;;5020926;28;20148;-43
2022/02/02 00:59:31;;;;;;;28.13;15.35;;;;;;;;;;5020724;28;20122;-43
2022/02/02 01:01:57;;;;;;;38.63;17.50;;;;;;;;;;5020729;28;20033;-46
2022/02/02 01:04:25;;;;;;;45.10;20.65;;;;;;;;;;5021080;28;20967;-44
2022/02/02 01:07:09;;;;;;;42.65;19.90;;;;;;;;;;5021014;28;20031;-44
2022/02/02 01:09:42;;;;;;;41.80;18.50;;;;;;;;;;5020329;28;20040;-44
2022/02/02 01:20:27;;;;;;;;;;;;;;;;;;5019870;28;20032;-45
2022/02/02 01:28:18;;;;;;;29.65;15.43;;;;;;;;;;5020478;28;20052;-43
2022/02/02 01:30:44;;;;;;;33.78;14.13;;;;;;;;;;5020982;28;20087;-44
2022/02/02 01:33:10;;;;;;;36.42;16.23;;;;;;;;;;5075531;28;20021;-46
2022/02/02 01:35:36;;;;;;;33.40;15.02;;;;;;;;;;5075623;28;20116;-44
2022/02/02 01:38:04;;;;;;;30.10;14.75;;;;;;;;;;5074691;28;20400;-43
2022/02/02 01:40:35;;;;;;;29.60;13.90;;;;;;;;;;5075497;28;20029;-45
2022/02/02 01:43:09;;;;;;;26.55;13.52;;;;;;;;;;5075479;28;20020;-44
2022/02/02 01:51:06;;;;;;;30.58;14.85;;;;;;;;;;5075474;28;20508;-44
2022/02/02 01:56:06;;;;;;;31.40;15.73;;;;;;;;;;5075012;28;20024;-43
2022/02/02 02:01:19;;;;;;;39.08;17.65;;;;;;;;;;5075463;28;20035;-44
2022/02/02 02:03:45;;;;;;;38.50;17.52;;;;;;;;;;5074990;28;20032;-44
2022/02/02 02:06:12;;;;;;;42.60;18.52;;;;;;;;;;5074965;28;20461;-52
2022/02/02 02:08:40;;;;;;;38.85;17.35;;;;;;;;;;5075012;28;20031;-45
2022/02/02 02:11:09;;;;;;;35.08;15.55;;;;;;;;;;5074679;28;20112;-44
2022/02/02 02:16:15;;;;;;;33.60;14.05;;;;;;;;;;5074739;28;20032;-45
2022/02/02 02:18:41;;;;;;;30.52;14.45;;;;;;;;;;5074796;28;20029;-45
2022/02/02 02:21:12;;;;;;;31.67;14.43;;;;;;;;;;5074612;28;20365;-46
2022/02/02 02:23:39;;;;;;;35.50;15.20;;;;;;;;;;5074531;28;20074;-44
2022/02/02 02:26:06;;;;;;;28.13;15.75;;;;;;;;;;5074464;28;20044;-45
2022/02/02 02:28:59;;;;;;;26.77;13.48;;;;;;;;;;5074381;28;20044;-44
2022/02/02 02:39:42;;;;;;;27.67;13.82;;;;;;;;;;5074261;28;20392;-43
2022/02/02 02:56:06;;;;;;;33.90;15.27;;;;;;;;;;5052117;28;20455;-45
2022/02/02 03:31:26;;;;;;;25.35;12.30;;;;;;;;;;5031750;28;20068;-44
2022/02/02 03:51:07;;;;;;;79.07;39.47;;;;;;;;;;5073164;28;20051;-46
2022/02/02 04:06:26;;;;;;;30.67;13.85;;;;;;;;;;5073217;28;20626;-44
2022/02/02 04:08:53;;;;;;;28.88;14.68;;;;;;;;;;5072822;28;20025;-45
2022/02/02 04:11:35;;;;;;;27.88;15.50;;;;;;;;;;5073045;28;20020;-44
2022/02/02 05:05:28;;;;;;;30.50;16.55;;;;;;;;;;5072449;28;20029;-45
2022/02/02 05:08:41;;;;;;;49.55;24.75;;;;;;;;;;5072320;28;20025;-45
2022/02/02 05:43:18;;;;;;;28.77;13.85;;;;;;;;;;5053601;28;20032;-46
2022/02/02 05:48:42;;;;;;;54.00;25.33;;;;;;;;;;5053240;28;20425;-46
2022/02/02 05:51:24;;;;;;;102.18;44.95;;;;;;;;;;5053044;28;20044;-47
2022/02/02 05:53:50;;;;;;;122.57;50.55;;;;;;;;;;5053135;28;20057;-46
2022/02/02 05:56:17;;;;;;;108.28;46.05;;;;;;;;;;5052943;28;20155;-45
2022/02/02 05:58:47;;;;;;;124.82;52.60;;;;;;;;;;5053043;28;20029;-47
2022/02/02 06:01:13;;;;;;;129.10;49.13;;;;;;;;;;5072071;28;20112;-46
2022/02/02 06:04:06;;;;;;;110.05;42.88;;;;;;;;;;5075127;28;20105;-46
2022/02/02 06:06:33;;;;;;;87.47;36.05;;;;;;;;;;5072877;28;20041;-45
2022/02/02 06:09:00;;;;;;;61.00;26.92;;;;;;;;;;5074992;28;20063;-46
2022/02/02 06:11:27;;;;;;;44.95;20.83;;;;;;;;;;5074915;28;20029;-45
2022/02/02 06:13:57;;;;;;;39.55;19.02;;;;;;;;;;5074854;28;20056;-46
2022/02/02 06:16:26;;;;;;;38.28;16.50;;;;;;;;;;5074795;28;20024;-45
2022/02/02 06:18:57;;;;;;;32.38;15.95;;;;;;;;;;5074806;28;20495;-46
2022/02/02 06:21:30;;;;;;;43.10;18.70;;;;;;;;;;5074884;28;20439;-44
2022/02/02 06:24:05;;;;;;;46.55;19.13;;;;;;;;;;5074397;28;20257;-44
2022/02/02 06:26:35;;;;;;;45.42;19.70;;;;;;;;;;5074519;28;20384;-44
2022/02/02 06:29:03;;;;;;;44.25;19.70;;;;;;;;;;5074252;28;20037;-45
2022/02/02 06:31:31;;;;;;;41.38;18.45;;;;;;;;;;5074411;28;20028;-45
2022/02/02 06:34:00;;;;;;;31.42;14.95;;;;;;;;;;5074684;28;20100;-44
2022/02/02 06:36:31;;;;;;;31.25;14.25;;;;;;;;;;5074538;28;20074;-45
2022/02/02 06:38:57;;;;;;;31.42;16.05;;;;;;;;;;5074375;28;20025;-46
2022/02/02 06:41:25;;;;;;;41.53;22.00;;;;;;;;;;5074346;28;20434;-46
2022/02/02 06:43:54;;;;;;;42.25;23.52;;;;;;;;;;5074234;28;20025;-44
2022/02/02 06:46:23;;;;;;;56.85;30.40;;;;;;;;;;5074166;28;20028;-45
2022/02/02 06:48:49;;;;;;;41.38;23.58;;;;;;;;;;5074220;28;20024;-45
2022/02/02 06:51:23;;;;;;;39.45;22.63;;;;;;;;;;5074205;28;20099;-46
2022/02/02 06:53:56;;;;;;;42.47;20.70;;;;;;;;;;5074021;28;20605;-45
2022/02/02 06:56:50;;;;;;;31.23;17.17;;;;;;;;;;5073980;28;20035;-46
2022/02/02 07:02:00;;;;;;;30.33;14.88;;;;;;;;;;5032068;28;20061;-44
2022/02/02 07:04:42;;;;;;;62.20;27.80;;;;;;;;;;5031867;28;20037;-44
2022/02/02 07:07:23;;;;;;;51.38;27.00;;;;;;;;;;5031785;28;20056;-45
2022/02/02 07:10:11;;;;;;;50.20;22.55;;;;;;;;;;5031632;28;20533;-45
2022/02/02 07:12:55;;;;;;;72.03;36.05;;;;;;;;;;5031402;28;20437;-45
2022/02/02 07:18:11;;;;;;;44.70;23.35;;;;;;;;;;5031500;28;20032;-46
2022/02/02 07:34:15;;;;;;;62.05;26.23;;;;;;;;;;5031500;28;20509;-46
2022/02/02 07:36:44;;;;;;;80.97;29.40;;;;;;;;;;5060507;28;20404;-45
2022/02/02 07:39:11;;;;;;;119.85;39.78;;;;;;;;;;5073576;28;20066;-46
2022/02/02 07:41:40;;;;;;;59.13;23.58;;;;;;;;;;5073175;28;20100;-47
2022/02/02 07:44:14;;;;;;;59.78;23.58;;;;;;;;;;5073257;28;20108;-47
2022/02/02 07:46:44;;;;;;;79.93;31.25;;;;;;;;;;5073234;28;20051;-47
2022/02/02 07:49:11;;;;;;;57.78;25.33;;;;;;;;;;5073000;28;20035;-47
2022/02/02 07:51:39;;;;;;;61.30;26.40;;;;;;;;;;5073189;28;20021;-47
2022/02/02 07:54:09;;;;;;;60.10;26.33;;;;;;;;;;5073400;28;20384;-45
2022/02/02 07:56:43;;;;;;;63.30;28.83;;;;;;;;;;5073154;28;20047;-45
2022/02/02 07:59:45;;;;;;;64.50;29.25;;;;;;;;;;5072968;28;20041;-45
2022/02/02 08:02:12;;;;;;;59.40;24.73;;;;;;;;;;5073417;28;20050;-46
2022/02/02 08:04:39;;;;;;;64.25;28.83;;;;;;;;;;5072946;28;20029;-47
2022/02/02 08:07:07;;;;;;;74.78;29.60;;;;;;;;;;5072977;28;20400;-45
2022/02/02 08:09:46;;;;;;;66.80;28.27;;;;;;;;;;5072939;28;20036;-45
2022/02/02 08:12:19;;;;;;;55.85;24.45;;;;;;;;;;5072836;28;20024;-46
2022/02/02 08:14:53;;;;;;;50.17;24.20;;;;;;;;;;5072791;28;20090;-46
2022/02/02 08:17:19;;;;;;;59.58;30.40;;;;;;;;;;5072640;28;20052;-46
2022/02/02 08:19:45;;;;;;;35.63;20.65;;;;;;;;;;5031332;28;20084;-46
2022/02/02 08:22:14;;;;;;;37.75;19.73;;;;;;;;;;5016635;28;20025;-45
2022/02/02 08:24:40;;;;;;;33.75;18.80;;;;;;;;;;5017263;28;20047;-45
2022/02/02 08:27:06;;;;;;;35.13;22.63;;;;;;;;;;5016526;28;21298;-45
2022/02/02 08:29:32;;;;;;;42.72;23.17;;;;;;;;;;5016434;28;20049;-45
2022/02/02 08:31:58;;;;;;;36.60;18.70;;;;;;;;;;5016520;28;20045;-45
2022/02/02 08:34:25;;;;;;;31.00;17.17;;;;;;;;;;5016788;28;20428;-45
2022/02/02 08:36:54;;;;;;;30.95;15.98;;;;;;;;;;5017222;28;20036;-46
2022/02/02 08:41:54;;;;;;;30.13;16.20;;;;;;;;;;5016615;28;20334;-45
2022/02/02 08:44:25;;;;;;;33.78;18.45;;;;;;;;;;5016758;28;20033;-44
2022/02/02 08:47:02;;;;;;;19.47;11.70;;;;;;;;;;5016880;28;20025;-46
2022/02/02 08:49:32;;;;;;;26.85;15.40;;;;;;;;;;5020765;28;20037;-45
2022/02/02 08:52:00;;;;;;;28.65;13.38;;;;;;;;;;5020272;28;20430;-45
2022/02/02 08:59:36;;;;;;;78.88;42.90;;;;;;;;;;5020329;28;20064;-47
2022/02/02 09:02:07;;;;;;;45.05;24.63;;;;;;;;;;5020771;28;20033;-45
2022/02/02 09:07:18;;;;;;;29.42;16.50;;;;;;;;;;5020396;28;20032;-44
2022/02/02 09:09:53;;;;;;;27.08;15.05;;;;;;;;;;5019973;28;20163;-45
2022/02/02 09:23:30;;;;;;;22.55;12.65;;;;;;;;;;5020445;28;20033;-45
2022/02/02 09:34:04;;;;;;;44.05;29.70;;;;;;;;;;5020486;28;20059;-49
2022/02/02 09:36:32;;;;;;;28.52;17.58;;;;;;;;;;5020538;28;20038;-46
2022/02/02 09:39:01;;;;;;;23.75;14.85;;;;;;;;;;5020601;28;20106;-45
2022/02/02 09:41:49;;;;;;;18.58;11.70;;;;;;;;;;5020527;28;20454;-46
2022/02/02 09:44:19;;;;;;;32.95;19.50;;;;;;;;;;5020775;28;20755;-45
2022/02/02 09:49:23;;;;;;;67.63;33.88;;;;;;;;;;5019856;28;20029;-46
2022/02/02 09:52:01;;;;;;;54.92;28.58;;;;;;;;;;5019022;28;20061;-45
2022/02/02 10:03:22;;;;;;;35.63;17.92;;;;;;;;;;4978323;28;20506;-45
2022/02/02 10:06:01;;;;;;;28.60;16.70;;;;;;;;;;4978015;28;20052;-46
2022/02/02 10:14:17;;;;;;;27.98;14.85;;;;;;;;;;4977870;28;20480;-47
2022/02/02 10:16:45;;;;;;;21.20;12.02;;;;;;;;;;4977784;28;20033;-45
2022/02/02 10:19:19;;;;;;;22.27;11.60;;;;;;;;;;4977474;28;20561;-45
2022/02/02 10:21:45;;;;;;;29.80;13.30;;;;;;;;;;4977823;28;20033;-46
2022/02/02 10:24:14;;;;;;;22.38;11.93;;;;;;;;;;4978347;28;20030;-45
2022/02/02 10:26:45;;;;;;;27.70;14.90;;;;;;;;;;4977559;28;20739;-44
2022/02/02 10:29:14;;;;;;;31.52;14.25;;;;;;;;;;4977221;28;20227;-46
2022/02/02 10:31:42;;;;;;;19.98;10.38;;;;;;;;;;4977641;28;20125;-46
2022/02/02 10:34:09;;;;;;;19.50;11.40;;;;;;;;;;4967610;28;20340;-45
2022/02/02 10:36:35;;;;;;;32.90;15.90;;;;;;;;;;4977586;28;20640;-45
2022/02/02 10:39:07;;;;;;;21.95;11.70;;;;;;;;;;4981713;28;20045;-45
2022/02/02 10:41:56;;;;;;;25.75;12.85;;;;;;;;;;5018338;28;20032;-45
2022/02/02 10:44:27;;;;;;;18.70;12.00;;;;;;;;;;5018315;28;20079;-46
2022/02/02 10:47:13;;;;;;;31.33;15.57;;;;;;;;;;5018318;28;20156;-45
2022/02/02 10:50:18;;;;;;;30.00;15.93;;;;;;;;;;5018233;28;20052;-46
2022/02/02 10:55:32;;;;;;;23.27;12.43;;;;;;;;;;5018429;28;20125;-45
2022/02/02 10:58:24;;;;;;;21.50;12.50;;;;;;;;;;5018148;28;20039;-46
2022/02/02 11:08:57;;;;;;;24.13;12.45;;;;;;;;;;5018435;28;20122;-46
2022/02/02 11:11:23;;;;;;;21.48;11.20;;;;;;;;;;5018148;28;20441;-45
2022/02/02 11:13:53;;;;;;;20.73;12.38;;;;;;;;;;5017623;28;20028;-45
2022/02/02 11:16:21;;;;;;;22.27;11.60;;;;;;;;;;5018086;28;20029;-45
2022/02/02 11:18:48;;;;;;;29.88;13.75;;;;;;;;;;5017849;28;20044;-46
2022/02/02 11:21:15;;;;;;;32.60;17.33;;;;;;;;;;5017960;28;20028;-46
2022/02/02 11:23:43;;;;;;;26.00;14.48;;;;;;;;;;5017452;28;20847;-46
2022/02/02 11:26:09;;;;;;;26.17;12.27;;;;;;;;;;5018346;28;20139;-45
2022/02/02 11:28:39;;;;;;;29.63;14.60;;;;;;;;;;5017181;28;20111;-46
2022/02/02 11:31:05;;;;;;;37.55;17.13;;;;;;;;;;5017285;28;20039;-46
2022/02/02 11:33:41;;;;;;;30.58;14.13;;;;;;;;;;5017685;28;20049;-51
2022/02/02 11:36:17;;;;;;;29.58;14.80;;;;;;;;;;5017940;28;20324;-46
2022/02/02 11:38:44;;;;;;;21.77;10.82;;;;;;;;;;5017402;28;20343;-45
2022/02/02 11:43:57;;;;;;;24.83;12.18;;;;;;;;;;5017628;28;20029;-45
2022/02/02 11:46:38;;;;;;;21.92;11.75;;;;;;;;;;5017352;28;20061;-46
2022/02/02 11:49:12;;;;;;;21.02;10.60;;;;;;;;;;5017401;28;20071;-45
2022/02/02 11:51:42;;;;;;;18.58;9.63;;;;;;;;;;5017332;28;20029;-46
2022/02/02 11:54:28;;;;;;;20.00;9.82;;;;;;;;;;5017622;28;20409;-46
2022/02/02 11:59:42;;;;;;;22.75;11.23;;;;;;;;;;5017423;28;20040;-47
2022/02/02 12:02:16;;;;;;;18.65;9.75;;;;;;;;;;5016903;28;20378;-46
2022/02/02 12:05:07;;;;;;;18.33;9.95;;;;;;;;;;5017010;28;20446;-47
2022/02/02 12:07:33;;;;;;;;;;;;;;;;;;5017557;28;20030;-47
2022/02/02 12:10:05;;;;;;;17.95;9.23;;;;;;;;;;5016726;28;20258;-46
2022/02/02 12:21:25;;;;;;;25.23;11.07;;;;;;;;;;5016638;28;20485;-47
2022/02/02 12:27:52;;;;;;;20.45;10.02;;;;;;;;;;5021525;28;20060;-46
2022/02/02 12:49:04;;;;;;;57.17;31.27;;;;;;;;;;5002818;28;20099;-46
2022/02/02 12:57:06;;;;;;;36.28;17.92;;;;;;;;;;5002802;28;20060;-46
2022/02/02 13:02:16;;;;;;;35.90;17.65;;;;;;;;;;5002416;28;20359;-46
2022/02/02 13:04:43;;;;;;;26.20;16.08;;;;;;;;;;5002495;28;20021;-46
2022/02/02 13:07:14;;;;;;;27.58;14.88;;;;;;;;;;5002390;28;20064;-45
2022/02/02 13:09:41;;;;;;;22.20;11.73;;;;;;;;;;5002409;28;20088;-46
2022/02/02 13:12:22;;;;;;;30.30;13.80;;;;;;;;;;5002500;28;20535;-47
2022/02/02 13:15:09;;;;;;;31.33;15.45;;;;;;;;;;5001962;28;20037;-45
2022/02/02 13:17:44;;;;;;;33.30;15.27;;;;;;;;;;5002021;28;20048;-45
2022/02/02 13:20:14;;;;;;;35.97;13.98;;;;;;;;;;5002421;28;20040;-45
2022/02/02 13:22:46;;;;;;;37.67;15.32;;;;;;;;;;5002328;28;20053;-46
2022/02/02 13:25:33;;;;;;;31.48;13.95;;;;;;;;;;4991667;28;20069;-45
2022/02/02 13:28:01;;;;;;;26.63;11.88;;;;;;;;;;5019412;28;20718;-46
2022/02/02 13:30:36;;;;;;;26.60;11.77;;;;;;;;;;5019922;28;20045;-46
2022/02/02 13:33:10;;;;;;;24.38;8.90;;;;;;;;;;5020561;28;20051;-46
2022/02/02 13:35:43;;;;;;;22.98;10.00;;;;;;;;;;5019536;28;20170;-46
2022/02/02 13:38:33;;;;;;;26.85;12.02;;;;;;;;;;5018239;28;20040;-46
2022/02/02 13:44:09;;;;;;;30.80;14.02;;;;;;;;;;5019494;28;20064;-46
2022/02/02 13:49:29;;;;;;;24.42;11.18;;;;;;;;;;5019532;28;20105;-46
2022/02/02 13:54:54;;;;;;;20.60;9.15;;;;;;;;;;4972949;28;20030;-46
2022/02/02 14:00:26;;;;;;;19.60;10.95;;;;;;;;;;4972585;28;20041;-45
2022/02/02 14:06:15;;;;;;;22.88;10.35;;;;;;;;;;4973147;28;20567;-50
2022/02/02 14:33:08;;;;;;;24.10;12.60;;;;;;;;;;5016992;28;20463;-45
2022/02/02 14:35:34;;;;;;;21.45;10.50;;;;;;;;;;5018738;28;20463;-45
2022/02/02 14:38:03;;;;;;;16.73;7.53;;;;;;;;;;5018717;28;20391;-46
2022/02/02 14:40:44;;;;;;;23.08;11.93;;;;;;;;;;5018601;28;20087;-45
2022/02/02 14:43:14;;;;;;;15.48;7.05;;;;;;;;;;5018406;28;20029;-46
2022/02/02 14:45:45;;;;;;;18.98;8.98;;;;;;;;;;5018122;28;20080;-45
2022/02/02 14:48:22;;;;;;;;;;;;;;;;;;5019169;28;20057;-45
2022/02/02 14:51:06;;;;;;;32.38;17.17;;;;;;;;;;5018896;28;20269;-45
2022/02/02 15:28:15;;;;;;;27.45;12.30;;;;;;;;;;5016939;28;20053;-46
2022/02/02 15:31:03;;;;;;;37.10;20.13;;;;;;;;;;5017600;28;20045;-46
2022/02/02 15:33:31;;;;;;;47.88;24.38;;;;;;;;;;5017851;28;20056;-46
2022/02/02 15:37:07;;;;;;;32.60;15.68;;;;;;;;;;5017500;28;20025;-46
2022/02/02 15:38:47;;;;;;;45.97;17.35;;;;;;;;;;5014542;28;20864;-46
2022/02/02 15:41:20;;;;;;;44.97;20.67;;;;;;;;;;5017597;28;20521;-46
2022/02/02 16:05:38;;;;;;;67.72;26.65;;;;;;;;;;5017667;28;20040;-45
2022/02/02 16:08:07;;;;;;;49.95;22.38;;;;;;;;;;5017062;28;20128;-45
2022/02/02 16:10:45;;;;;;;40.38;14.63;;;;;;;;;;5016751;28;20044;-45
2022/02/02 16:13:28;;;;;;;30.77;14.93;;;;;;;;;;5016528;28;20036;-45
2022/02/02 16:15:58;;;;;;;22.55;10.73;;;;;;;;;;5017071;28;20033;-45
2022/02/02 16:32:27;;;;;;;21.00;8.40;;;;;;;;;;5016581;28;20055;-47
2022/02/02 16:37:43;;;;;;;68.13;22.92;;;;;;;;;;5017421;28;20189;-50
2022/02/02 16:40:13;;;;;;;27.73;11.60;;;;;;;;;;5016926;28;20117;-46
2022/02/02 16:45:28;;;;;;;32.70;15.77;;;;;;;;;;5016843;28;20048;-46
2022/02/02 16:47:54;;;;;;;33.60;15.75;;;;;;;;;;5017077;28;20122;-46
2022/02/02 16:50:24;;;;;;;30.55;13.80;;;;;;;;;;5016822;28;20037;-45
2022/02/02 16:52:55;;;;;;;22.13;9.00;;;;;;;;;;5016780;28;20032;-46
2022/02/02 16:58:08;;;;;;;25.10;9.68;;;;;;;;;;5016663;28;20057;-46
2022/02/02 17:33:10;;;;;;;27.42;14.57;;;;;;;;;;4980986;28;20383;-46
2022/02/02 17:46:03;;;;;;;36.83;19.10;;;;;;;;;;5019756;28;20021;-46
2022/02/02 18:20:48;;;;;;;38.58;18.88;;;;;;;;;;5018007;28;20796;-45
2022/02/02 18:25:50;;;;;;;45.17;21.60;;;;;;;;;;5018397;28;20033;-47
2022/02/02 18:34:08;;;;;;;37.30;19.30;;;;;;;;;;5018593;28;20091;-47
2022/02/02 18:45:36;;;;;;;28.20;12.85;;;;;;;;;;5018411;28;20195;-46
2022/02/02 20:10:29;;;;;;;53.97;25.63;;;;;;;;;;5016496;28;20435;-45
2022/02/02 20:12:56;;;;;;;47.13;19.55;;;;;;;;;;5017019;28;20425;-46
2022/02/02 20:15:22;;;;;;;83.25;42.95;;;;;;;;;;5016827;28;20056;-45
2022/02/02 20:17:50;;;;;;;49.72;25.60;;;;;;;;;;5016998;28;20528;-45
2022/02/02 20:20:19;;;;;;;51.15;26.88;;;;;;;;;;5016686;28;20409;-45
2022/02/02 20:22:46;;;;;;;55.38;28.58;;;;;;;;;;5016645;28;20152;-45
2022/02/02 20:25:13;;;;;;;49.85;23.95;;;;;;;;;;5016271;28;20428;-45
2022/02/02 20:27:40;;;;;;;65.55;30.30;;;;;;;;;;5016590;28;20453;-46
2022/02/02 20:30:08;;;;;;;34.28;16.23;;;;;;;;;;5016616;28;20425;-46
2022/02/02 20:32:34;;;;;;;40.40;20.75;;;;;;;;;;5016958;28;20392;-46
2022/02/02 20:35:00;;;;;;;47.50;25.27;;;;;;;;;;5016693;28;20371;-46
2022/02/02 20:37:28;;;;;;;45.50;21.27;;;;;;;;;;5016670;28;20025;-46
2022/02/02 20:42:30;;;;;;;44.83;21.27;;;;;;;;;;5016339;28;20406;-46
2022/02/02 21:03:43;;;;;;;30.95;14.30;;;;;;;;;;5020296;28;20061;-46
2022/02/02 21:11:37;;;;;;;53.53;26.23;;;;;;;;;;5019693;28;20033;-45
2022/02/02 21:14:02;;;;;;;37.92;19.05;;;;;;;;;;5019636;28;20033;-46
2022/02/02 21:16:31;;;;;;;39.70;18.15;;;;;;;;;;5019834;28;20026;-45
2022/02/02 21:19:00;;;;;;;18.73;8.90;;;;;;;;;;5019649;28;20021;-45
2022/02/02 21:21:51;;;;;;;26.30;13.48;;;;;;;;;;5020265;28;20106;-45
2022/02/02 21:24:45;;;;;;;;;;;;;;;;;;5020554;28;20027;-45
2022/02/02 21:29:37;;;;;;;54.10;27.90;;;;;;;;;;5019157;28;20076;-45
2022/02/02 21:32:03;;;;;;;38.58;20.73;;;;;;;;;;5020270;28;20136;-45
2022/02/02 21:34:29;;;;;;;35.45;19.15;;;;;;;;;;5019725;28;20366;-46
2022/02/02 21:37:01;;;;;;;42.55;20.20;;;;;;;;;;5019793;28;20706;-45
2022/02/02 21:39:28;;;;;;;20.10;10.98;;;;;;;;;;5019649;28;20057;-45
2022/02/02 21:41:56;;;;;;;13.90;6.72;;;;;;;;;;5019919;28;20760;-45
2022/02/02 21:44:22;;;;;;;14.25;6.97;;;;;;;;;;5019497;28;20022;-45
2022/02/02 21:46:49;;;;;;;16.77;7.43;;;;;;;;;;5019615;28;20127;-45
2022/02/02 21:49:19;;;;;;;26.45;12.85;;;;;;;;;;5019346;28;20027;-45
2022/02/02 21:52:07;;;;;;;12.40;5.88;;;;;;;;;;5018852;28;20208;-45
2022/02/02 21:54:35;;;;;;;17.83;6.60;;;;;;;;;;5018889;28;20023;-45
2022/02/02 21:57:02;;;;;;;15.07;5.95;;;;;;;;;;5018736;28;20036;-45
2022/02/02 21:59:29;;;;;;;27.48;14.98;;;;;;;;;;5019547;28;20144;-45
2022/02/02 22:01:55;;;;;;;26.90;14.13;;;;;;;;;;5018881;28;20040;-45
2022/02/02 22:04:21;;;;;;;28.83;6.28;;;;;;;;;;5018229;28;20020;-45
2022/02/02 22:06:47;;;;;;;16.45;6.90;;;;;;;;;;5006220;28;20041;-44
2022/02/02 22:09:14;;;;;;;18.17;7.22;;;;;;;;;;5019234;28;20033;-45
2022/02/02 22:11:40;;;;;;;11.82;6.20;;;;;;;;;;5020126;28;20041;-46
2022/02/02 22:14:12;;;;;;;13.88;6.63;;;;;;;;;;5020174;28;20021;-45
2022/02/02 22:16:40;;;;;;;8.63;4.20;;;;;;;;;;5018292;28;20033;-45
2022/02/02 22:19:06;;;;;;;14.93;6.07;;;;;;;;;;5018932;28;20200;-46
2022/02/02 22:21:32;;;;;;;40.90;19.17;;;;;;;;;;5019070;28;20072;-45
2022/02/02 22:24:01;;;;;;;29.77;15.77;;;;;;;;;;5017957;28;20195;-45
2022/02/02 22:26:27;;;;;;;23.30;11.65;;;;;;;;;;5019379;28;20029;-45
2022/02/02 22:28:54;;;;;;;24.73;9.70;;;;;;;;;;5019434;28;21299;-44
2022/02/02 22:31:20;;;;;;;30.95;15.55;;;;;;;;;;5019343;28;20037;-45
2022/02/02 22:33:46;;;;;;;26.45;13.50;;;;;;;;;;5018404;28;20127;-45
2022/02/02 22:36:13;;;;;;;43.85;20.98;;;;;;;;;;5018495;28;20161;-45
2022/02/02 22:38:42;;;;;;;16.35;6.53;;;;;;;;;;5019026;28;20025;-45
2022/02/02 22:41:09;;;;;;;22.02;9.35;;;;;;;;;;5019655;28;20353;-45
2022/02/02 22:43:43;;;;;;;9.38;4.93;;;;;;;;;;5018496;28;20025;-45
2022/02/02 22:46:09;;;;;;;17.30;6.10;;;;;;;;;;5018800;28;20065;-45
2022/02/02 22:48:37;;;;;;;11.93;6.60;;;;;;;;;;5019066;28;20017;-45
2022/02/02 22:51:04;;;;;;;20.95;9.23;;;;;;;;;;5019512;28;20052;-45
2022/02/02 22:53:30;;;;;;;11.27;5.25;;;;;;;;;;5018827;28;20469;-45
2022/02/02 22:55:56;;;;;;;21.30;10.15;;;;;;;;;;5019055;28;20140;-44
2022/02/02 22:58:23;;;;;;;13.88;6.35;;;;;;;;;;5018288;28;20029;-45
2022/02/02 23:00:49;;;;;;;12.85;6.15;;;;;;;;;;5019768;28;20335;-45
2022/02/02 23:03:19;;;;;;;11.55;3.63;;;;;;;;;;5018992;28;20032;-46
2022/02/02 23:05:50;;;;;;;18.13;9.20;;;;;;;;;;5018824;28;20034;-45
2022/02/02 23:08:19;;;;;;;24.45;10.15;;;;;;;;;;5018303;28;20621;-44
2022/02/02 23:10:47;;;;;;;28.48;13.00;;;;;;;;;;5017325;28;20500;-45
2022/02/02 23:13:15;;;;;;;91.47;48.38;;;;;;;;;;5018387;28;20027;-45
2022/02/02 23:18:26;;;;;;;25.58;10.05;;;;;;;;;;5019341;28;20079;-45
2022/02/02 23:20:58;;;;;;;23.15;12.48;;;;;;;;;;5018909;28;20099;-45
2022/02/02 23:23:29;;;;;;;17.33;7.50;;;;;;;;;;5017122;28;20352;-45
2022/02/02 23:25:56;;;;;;;32.00;14.68;;;;;;;;;;5017929;28;20037;-45
2022/02/02 23:28:25;;;;;;;45.72;20.05;;;;;;;;;;5017658;28;20075;-44
2022/02/02 23:30:52;;;;;;;33.65;12.82;;;;;;;;;;5018152;28;20036;-44
2022/02/02 23:33:18;;;;;;;26.85;12.07;;;;;;;;;;5017479;28;20559;-44
2022/02/02 23:35:45;;;;;;;22.60;9.55;;;;;;;;;;5018372;28;20025;-44
2022/02/02 23:38:13;;;;;;;17.17;6.60;;;;;;;;;;5018857;28;20025;-45
2022/02/02 23:41:51;;;;;;;17.92;6.03;;;;;;;;;;5017546;28;20677;-44
2022/02/02 23:43:26;;;;;;;13.52;6.53;;;;;;;;;;5016520;28;20119;-44
2022/02/02 23:45:56;;;;;;;25.38;11.88;;;;;;;;;;5017882;28;20476;-44
2022/02/02 23:48:23;;;;;;;18.75;7.40;;;;;;;;;;5017729;28;20027;-45
2022/02/02 23:50:52;;;;;;;47.80;23.02;;;;;;;;;;5017922;28;20033;-44
2022/02/02 23:53:21;;;;;;;27.67;12.73;;;;;;;;;;5016523;28;20071;-45
2022/02/02 23:55:56;;;;;;;29.25;13.23;;;;;;;;;;5017225;28;20076;-44
2022/02/02 23:58:32;;;;;;;15.88;6.43;;;;;;;;;;5017336;28;20488;-45
